createdAt,value
2024-04-13T00:00:59.928Z,102041.19
2024-04-13T00:03:28.501Z,102031.47
2024-04-13T00:05:56.685Z,102032.78
2024-04-13T00:08:25.566Z,102037.06
2024-04-13T00:10:53.966Z,102035.78
2024-04-13T00:13:22.242Z,102032.69
2024-04-13T00:15:59.855Z,102025.84
2024-04-13T00:18:28.174Z,102035.00
2024-04-13T00:20:56.857Z,102039.13
2024-04-13T00:23:26.352Z,102027.59
2024-04-13T00:25:55.452Z,102028.03
2024-04-13T00:28:23.814Z,102022.19
2024-04-13T00:30:57.045Z,102031.09
2024-04-13T00:33:25.584Z,102027.56
2024-04-13T00:36:00.325Z,102023.16
2024-04-13T00:38:28.780Z,102019.44
2024-04-13T00:40:57.153Z,102004.47
2024-04-13T00:43:25.386Z,102004.38
2024-04-13T00:45:57.025Z,102017.50
2024-04-13T00:48:31.915Z,102003.97
2024-04-13T00:51:06.038Z,102008.38
2024-04-13T00:53:38.036Z,101999.66
2024-04-13T00:56:08.468Z,102005.34
2024-04-13T00:58:37.705Z,102008.81
2024-04-13T01:01:07.431Z,102002.63
2024-04-13T01:03:40.457Z,101998.66
2024-04-13T01:06:09.907Z,102012.09
2024-04-13T01:08:38.681Z,102004.53
2024-04-13T01:11:08.047Z,102003.25
2024-04-13T01:13:39.502Z,102002.78
2024-04-13T01:16:08.743Z,102004.66
2024-04-13T01:18:37.040Z,102016.63
2024-04-13T01:21:06.063Z,102012.22
2024-04-13T01:23:40.408Z,102010.97
2024-04-13T01:26:10.376Z,102013.06
2024-04-13T01:28:38.658Z,102017.53
2024-04-13T01:31:07.305Z,102014.94
2024-04-13T01:33:35.696Z,102012.56
2024-04-13T01:36:04.183Z,102017.72
2024-04-13T01:38:32.777Z,102011.91
2024-04-13T01:41:00.864Z,102011.34
2024-04-13T01:43:29.067Z,102012.34
2024-04-13T01:45:57.138Z,102013.16
2024-04-13T01:48:25.335Z,102014.75
2024-04-13T01:50:53.582Z,102012.34
2024-04-13T01:53:22.947Z,102009.97
2024-04-13T01:55:51.137Z,102010.13
2024-04-13T01:58:19.084Z,102002.59
2024-04-13T02:00:47.441Z,101998.31
2024-04-13T02:03:16.267Z,102002.84
2024-04-13T02:05:44.979Z,102001.56
2024-04-13T02:08:13.057Z,102009.38
2024-04-13T02:10:41.700Z,102009.25
2024-04-13T02:13:10.247Z,102010.72
2024-04-13T02:15:38.747Z,102013.69
2024-04-13T02:18:06.986Z,102010.88
2024-04-13T02:20:36.143Z,102010.72
2024-04-13T02:23:06.354Z,102012.56
2024-04-13T02:25:34.696Z,102005.03
2024-04-13T02:28:05.928Z,102012.56
2024-04-13T02:30:34.344Z,102013.16
2024-04-13T02:33:02.528Z,102009.56
2024-04-13T02:35:31.546Z,102012.00
2024-04-13T02:37:59.905Z,102024.41
2024-04-13T02:40:28.719Z,102008.75
2024-04-13T02:42:58.679Z,102012.59
2024-04-13T02:45:27.199Z,102011.00
2024-04-13T02:47:55.386Z,102012.56
2024-04-13T02:50:23.592Z,102004.59
2024-04-13T02:52:54.008Z,102004.31
2024-04-13T02:55:22.169Z,102018.44
2024-04-13T02:57:50.282Z,102015.84
2024-04-13T03:00:18.581Z,102007.72
2024-04-13T03:02:46.932Z,102011.16
2024-04-13T03:05:15.862Z,102013.88
2024-04-13T03:07:43.944Z,102009.59
2024-04-13T03:10:12.148Z,102008.75
2024-04-13T03:12:40.397Z,102002.34
2024-04-13T03:15:09.784Z,102012.47
2024-04-13T03:17:38.672Z,102009.31
2024-04-13T03:20:07.585Z,102009.69
2024-04-13T03:22:35.954Z,102011.56
2024-04-13T03:25:05.152Z,102013.03
2024-04-13T03:27:34.973Z,102010.13
2024-04-13T03:30:03.547Z,102013.72
2024-04-13T03:32:32.034Z,102010.28
2024-04-13T03:35:00.430Z,102012.16
2024-04-13T03:37:28.507Z,102005.59
2024-04-13T03:39:56.395Z,102007.00
2024-04-13T03:42:24.656Z,102008.59
2024-04-13T03:44:52.654Z,102009.47
2024-04-13T03:47:21.101Z,102013.88
2024-04-13T03:49:49.648Z,102012.75
2024-04-13T03:52:17.864Z,102016.13
2024-04-13T03:54:46.125Z,102012.72
2024-04-13T03:57:14.395Z,102018.25
2024-04-13T03:59:42.708Z,102008.16
2024-04-13T04:02:10.940Z,102018.69
2024-04-13T04:04:39.227Z,102014.44
2024-04-13T04:07:07.476Z,102025.09
2024-04-13T04:09:36.704Z,102022.25
2024-04-13T04:12:06.640Z,102017.41
2024-04-13T04:14:34.908Z,102029.06
2024-04-13T04:17:03.158Z,102027.22
2024-04-13T04:19:31.548Z,102024.81
2024-04-13T04:21:59.746Z,102026.22
2024-04-13T04:24:28.136Z,102026.81
2024-04-13T04:26:56.426Z,102024.66
2024-04-13T04:29:24.682Z,102023.25
2024-04-13T04:31:52.836Z,102024.25
2024-04-13T04:34:21.118Z,102018.97
2024-04-13T04:36:49.326Z,102026.66
2024-04-13T04:39:19.352Z,102023.66
2024-04-13T04:41:47.589Z,102034.22
2024-04-13T04:44:15.847Z,102026.25
2024-04-13T04:46:46.883Z,102038.47
2024-04-13T04:49:15.208Z,102040.47
2024-04-13T04:51:43.562Z,102038.19
2024-04-13T04:54:11.896Z,102038.47
2024-04-13T04:56:40.022Z,102039.03
2024-04-13T04:59:08.261Z,102038.88
2024-04-13T05:01:36.553Z,102049.97
2024-04-13T05:04:06.481Z,102047.16
2024-04-13T05:06:35.170Z,102049.88
2024-04-13T05:09:06.800Z,102057.53
2024-04-13T05:11:35.133Z,102060.09
2024-04-13T05:14:03.451Z,102050.94
2024-04-13T05:16:33.143Z,102051.13
2024-04-13T05:19:01.778Z,102056.28
2024-04-13T05:21:30.223Z,102053.69
2024-04-13T05:23:58.773Z,102052.84
2024-04-13T05:26:27.134Z,102055.69
2024-04-13T05:28:55.855Z,102055.28
2024-04-13T05:31:25.253Z,102062.41
2024-04-13T05:33:53.695Z,102055.59
2024-04-13T05:36:23.002Z,102064.41
2024-04-13T05:38:51.836Z,102063.28
2024-04-13T05:41:19.880Z,102063.03
2024-04-13T05:43:49.159Z,102070.72
2024-04-13T05:46:17.432Z,102075.28
2024-04-13T05:48:45.727Z,102079.97
2024-04-13T05:51:14.047Z,102076.84
2024-04-13T05:53:42.444Z,102082.25
2024-04-13T05:56:10.755Z,102090.09
2024-04-13T05:58:38.938Z,102086.66
2024-04-13T06:01:07.044Z,102088.09
2024-04-13T06:03:35.370Z,102093.31
2024-04-13T06:06:03.496Z,102097.44
2024-04-13T06:08:31.578Z,102100.28
2024-04-13T06:11:00.013Z,102105.97
2024-04-13T06:13:28.385Z,102107.94
2024-04-13T06:15:56.605Z,102112.91
2024-04-13T06:18:24.929Z,102117.38
2024-04-13T06:20:53.047Z,102130.50
2024-04-13T06:23:21.438Z,102126.63
2024-04-13T06:25:49.711Z,102127.34
2024-04-13T06:28:18.087Z,102120.94
2024-04-13T06:30:48.369Z,102126.88
2024-04-13T06:33:20.595Z,102137.72
2024-04-13T06:35:51.659Z,102137.97
2024-04-13T06:38:25.815Z,102134.00
2024-04-13T06:40:55.616Z,102134.59
2024-04-13T06:43:31.304Z,102136.03
2024-04-13T06:46:05.362Z,102123.31
2024-04-13T06:48:37.380Z,102130.69
2024-04-13T06:51:05.858Z,102122.09
2024-04-13T06:53:33.965Z,102124.00
2024-04-13T06:56:02.149Z,102125.44
2024-04-13T06:58:35.163Z,102128.97
2024-04-13T07:01:04.135Z,102131.72
2024-04-13T07:03:33.284Z,102121.75
2024-04-13T07:06:02.821Z,102118.25
2024-04-13T07:08:32.245Z,102126.78
2024-04-13T07:11:02.303Z,102115.22
2024-04-13T07:13:30.872Z,102119.25
2024-04-13T07:16:00.057Z,102123.06
2024-04-13T07:18:28.354Z,102127.50
2024-04-13T07:21:00.274Z,102121.84
2024-04-13T07:23:31.313Z,102122.97
2024-04-13T07:26:09.378Z,102123.56
2024-04-13T07:28:38.037Z,102127.41
2024-04-13T07:31:06.630Z,102123.88
2024-04-13T07:33:35.167Z,102121.38
2024-04-13T07:36:03.972Z,102119.94
2024-04-13T07:38:32.517Z,102122.19
2024-04-13T07:41:00.641Z,102117.78
2024-04-13T07:43:30.762Z,102117.28
2024-04-13T07:45:59.334Z,102121.19
2024-04-13T07:48:27.863Z,102117.13
2024-04-13T07:50:57.273Z,102124.63
2024-04-13T07:53:25.753Z,102122.25
2024-04-13T07:55:54.026Z,102127.69
2024-04-13T07:58:22.641Z,102129.00
2024-04-13T08:00:51.813Z,102130.53
2024-04-13T08:03:20.303Z,102130.50
2024-04-13T08:05:48.665Z,102126.53
2024-04-13T08:08:17.021Z,102137.41
2024-04-13T08:10:45.872Z,102132.19
2024-04-13T08:13:13.863Z,102140.31
2024-04-13T08:15:41.911Z,102139.53
2024-04-13T08:18:10.507Z,102132.44
2024-04-13T08:20:39.100Z,102135.44
2024-04-13T08:23:07.412Z,102139.44
2024-04-13T08:25:35.844Z,102137.50
2024-04-13T08:28:04.104Z,102134.50
2024-04-13T08:30:32.452Z,102140.06
2024-04-13T08:33:00.859Z,102138.94
2024-04-13T08:35:28.890Z,102133.56
2024-04-13T08:37:56.949Z,102132.72
2024-04-13T08:40:24.943Z,102134.41
2024-04-13T08:42:55.206Z,102133.66
2024-04-13T08:45:24.451Z,102133.34
2024-04-13T08:47:53.697Z,102134.72
2024-04-13T08:50:23.026Z,102138.22
2024-04-13T08:52:51.586Z,102131.28
2024-04-13T08:55:22.716Z,102129.56
2024-04-13T08:57:52.099Z,102129.88
2024-04-13T09:00:21.889Z,102130.59
2024-04-13T09:02:57.081Z,102131.28
2024-04-13T09:05:28.545Z,102135.38
2024-04-13T09:07:57.982Z,102132.81
2024-04-13T09:10:28.500Z,102133.94
2024-04-13T09:12:59.704Z,102133.56
2024-04-13T09:15:29.277Z,102134.56
2024-04-13T09:17:59.094Z,102135.16
2024-04-13T09:20:28.107Z,102129.31
2024-04-13T09:22:57.312Z,102131.09
2024-04-13T09:25:28.835Z,102131.16
2024-04-13T09:28:01.070Z,102134.63
2024-04-13T09:30:29.897Z,102138.16
2024-04-13T09:33:08.542Z,102132.16
2024-04-13T09:35:37.219Z,102130.78
2024-04-13T09:38:05.462Z,102130.63
2024-04-13T09:40:33.783Z,102121.56
2024-04-13T09:43:02.003Z,102128.97
2024-04-13T09:45:30.365Z,102133.81
2024-04-13T09:48:01.342Z,102132.13
2024-04-13T09:50:29.677Z,102121.34
2024-04-13T09:53:02.081Z,102120.22
2024-04-13T09:55:30.688Z,102115.16
2024-04-13T09:57:59.790Z,102117.00
2024-04-13T10:00:29.406Z,102116.31
2024-04-13T10:03:01.032Z,102116.47
2024-04-13T10:05:34.298Z,102107.53
2024-04-13T10:08:04.374Z,102110.75
2024-04-13T10:10:32.979Z,102105.56
2024-04-13T10:13:02.816Z,102105.72
2024-04-13T10:15:33.232Z,102098.81
2024-04-13T10:18:03.580Z,102103.78
2024-04-13T10:20:32.027Z,102100.50
2024-04-13T10:23:00.016Z,102094.03
2024-04-13T10:25:29.499Z,102091.31
2024-04-13T10:28:08.812Z,102095.13
2024-04-13T10:30:51.895Z,102093.97
2024-04-13T10:33:31.752Z,102089.88
2024-04-13T10:36:06.850Z,102086.28
2024-04-13T10:38:37.289Z,102082.44
2024-04-13T10:41:05.950Z,102084.31
2024-04-13T10:43:34.471Z,102085.75
2024-04-13T10:46:04.752Z,102078.47
2024-04-13T10:48:34.646Z,102082.84
2024-04-13T10:51:03.071Z,102077.94
2024-04-13T10:53:31.252Z,102074.88
2024-04-13T10:56:00.234Z,102075.97
2024-04-13T10:58:33.500Z,102070.28
2024-04-13T11:01:02.117Z,102070.75
2024-04-13T11:03:31.460Z,102064.94
2024-04-13T11:06:03.507Z,102066.03
2024-04-13T11:08:33.474Z,102061.81
2024-04-13T11:11:03.550Z,102055.75
2024-04-13T11:13:32.044Z,102056.59
2024-04-13T11:16:00.411Z,102053.31
2024-04-13T11:18:29.563Z,102049.94
2024-04-13T11:21:07.050Z,102044.28
2024-04-13T11:23:36.707Z,102037.28
2024-04-13T11:26:05.484Z,102039.06
2024-04-13T11:28:34.787Z,102043.72
2024-04-13T11:31:03.156Z,102033.69
2024-04-13T11:33:33.469Z,102035.44
2024-04-13T11:36:02.331Z,102025.56
2024-04-13T11:38:34.598Z,102030.75
2024-04-13T11:41:02.739Z,102024.41
2024-04-13T11:43:32.597Z,102023.94
2024-04-13T11:46:01.058Z,102021.31
2024-04-13T11:48:31.946Z,102013.81
2024-04-13T11:51:00.719Z,102012.94
2024-04-13T11:53:28.944Z,102015.16
2024-04-13T11:55:57.809Z,102013.00
2024-04-13T11:58:26.418Z,102013.22
2024-04-13T12:00:54.765Z,102011.28
2024-04-13T12:03:32.582Z,102013.75
2024-04-13T12:06:02.067Z,102020.56
2024-04-13T12:08:30.708Z,102013.03
2024-04-13T12:10:59.539Z,102004.31
2024-04-13T12:13:32.854Z,102000.69
2024-04-13T12:16:01.120Z,101999.31
2024-04-13T12:18:29.481Z,101992.00
2024-04-13T12:20:57.780Z,101998.47
2024-04-13T12:23:28.943Z,101983.53
2024-04-13T12:25:57.257Z,101996.63
2024-04-13T12:28:25.490Z,101981.34
2024-04-13T12:30:53.992Z,101979.81
2024-04-13T12:33:22.248Z,101976.19
2024-04-13T12:35:50.580Z,101969.75
2024-04-13T12:38:18.805Z,101964.09
2024-04-13T12:40:46.963Z,101967.00
2024-04-13T12:43:18.366Z,101959.84
2024-04-13T12:45:49.439Z,101960.50
2024-04-13T12:48:18.045Z,101942.50
2024-04-13T12:50:46.445Z,101950.31
2024-04-13T12:53:14.659Z,101948.50
2024-04-13T12:55:43.007Z,101944.97
2024-04-13T12:58:11.563Z,101937.53
2024-04-13T13:00:39.715Z,101940.66
2024-04-13T13:03:12.044Z,101936.41
2024-04-13T13:05:42.947Z,101928.16
2024-04-13T13:08:13.730Z,101925.78
2024-04-13T13:10:41.863Z,101920.28
2024-04-13T13:13:10.163Z,101917.38
2024-04-13T13:15:38.485Z,101909.44
2024-04-13T13:18:06.956Z,101909.16
2024-04-13T13:21:03.171Z,101900.03
2024-04-13T13:23:33.048Z,101894.63
2024-04-13T13:26:01.243Z,101900.97
2024-04-13T13:28:29.531Z,101902.34
2024-04-13T13:30:57.987Z,101893.56
2024-04-13T13:33:26.515Z,101894.47
2024-04-13T13:35:54.733Z,101895.81
2024-04-13T13:38:23.008Z,101893.03
2024-04-13T13:40:51.086Z,101886.94
2024-04-13T13:43:19.443Z,101881.56
2024-04-13T13:45:47.698Z,101879.63
2024-04-13T13:48:18.596Z,101877.00
2024-04-13T13:50:48.161Z,101876.38
2024-04-13T13:53:16.250Z,101876.16
2024-04-13T13:55:44.963Z,101868.22
2024-04-13T13:58:15.410Z,101870.09
2024-04-13T14:00:45.098Z,101865.56
2024-04-13T14:03:13.346Z,101858.31
2024-04-13T14:05:41.488Z,101856.31
2024-04-13T14:08:09.808Z,101849.03
2024-04-13T14:10:38.027Z,101843.47
2024-04-13T14:13:06.669Z,101841.47
2024-04-13T14:15:38.523Z,101840.09
2024-04-13T14:18:07.650Z,101833.13
2024-04-13T14:20:41.239Z,101828.97
2024-04-13T14:23:09.837Z,101826.84
2024-04-13T14:25:37.988Z,101815.97
2024-04-13T14:28:06.639Z,101824.72
2024-04-13T14:30:36.348Z,101830.19
2024-04-13T14:33:04.964Z,101824.47
2024-04-13T14:35:33.166Z,101820.13
2024-04-13T14:38:05.674Z,101815.97
2024-04-13T14:40:33.965Z,101809.25
2024-04-13T14:43:02.010Z,101808.75
2024-04-13T14:45:30.228Z,101809.94
2024-04-13T14:47:58.577Z,101804.72
2024-04-13T14:50:27.107Z,101802.44
2024-04-13T14:52:55.430Z,101802.53
2024-04-13T14:55:23.364Z,101799.03
2024-04-13T14:57:56.711Z,101799.88
2024-04-13T15:00:26.166Z,101796.41
2024-04-13T15:02:54.764Z,101801.31
2024-04-13T15:05:23.268Z,101803.59
2024-04-13T15:07:57.215Z,101787.22
2024-04-13T15:10:26.833Z,101793.00
2024-04-13T15:12:55.191Z,101790.63
2024-04-13T15:15:23.462Z,101792.56
2024-04-13T15:17:51.856Z,101787.84
2024-04-13T15:20:20.324Z,101782.88
2024-04-13T15:22:48.789Z,101792.53
2024-04-13T15:25:17.608Z,101783.50
2024-04-13T15:27:45.974Z,101782.94
2024-04-13T15:30:14.268Z,101781.34
2024-04-13T15:32:42.518Z,101775.94
2024-04-13T15:35:11.327Z,101773.50
2024-04-13T15:37:39.999Z,101781.72
2024-04-13T15:40:09.167Z,101775.97
2024-04-13T15:42:38.175Z,101763.25
2024-04-13T15:45:09.081Z,101765.56
2024-04-13T15:47:37.786Z,101754.97
2024-04-13T15:50:07.537Z,101756.41
2024-04-13T15:52:35.911Z,101765.19
2024-04-13T15:55:04.250Z,101764.78
2024-04-13T15:57:32.645Z,101759.91
2024-04-13T16:00:01.405Z,101764.75
2024-04-13T16:02:38.062Z,101769.59
2024-04-13T16:05:07.767Z,101760.66
2024-04-13T16:07:36.071Z,101763.41
2024-04-13T16:10:04.823Z,101758.81
2024-04-13T16:12:33.517Z,101762.00
2024-04-13T16:15:01.732Z,101759.03
2024-04-13T16:17:29.968Z,101760.66
2024-04-13T16:19:58.210Z,101761.47
2024-04-13T16:22:26.348Z,101745.22
2024-04-13T16:24:54.673Z,101749.84
2024-04-13T16:27:23.429Z,101751.00
2024-04-13T16:29:51.669Z,101755.66
2024-04-13T16:32:19.890Z,101749.38
2024-04-13T16:34:48.137Z,101749.06
2024-04-13T16:37:17.786Z,101747.22
2024-04-13T16:39:45.989Z,101743.41
2024-04-13T16:42:14.096Z,101740.09
2024-04-13T16:44:42.134Z,101741.84
2024-04-13T16:47:10.225Z,101744.44
2024-04-13T16:49:38.210Z,101748.72
2024-04-13T16:52:06.866Z,101752.16
2024-04-13T16:54:35.095Z,101739.50
2024-04-13T16:57:03.486Z,101741.81
2024-04-13T16:59:31.569Z,101737.75
2024-04-13T17:02:00.304Z,101744.09
2024-04-13T17:04:28.780Z,101738.69
2024-04-13T17:06:57.152Z,101746.13
2024-04-13T17:09:26.703Z,101743.84
2024-04-13T17:11:54.788Z,101741.75
2024-04-13T17:14:22.907Z,101738.81
2024-04-13T17:16:51.352Z,101739.06
2024-04-13T17:19:19.622Z,101736.97
2024-04-13T17:21:47.855Z,101740.34
2024-04-13T17:24:16.146Z,101739.97
2024-04-13T17:26:44.394Z,101738.50
2024-04-13T17:29:12.641Z,101731.56
2024-04-13T17:31:40.960Z,101726.72
2024-04-13T17:34:10.664Z,101730.31
2024-04-13T17:36:39.209Z,101719.75
2024-04-13T17:39:10.216Z,101721.41
2024-04-13T17:41:39.684Z,101725.38
2024-04-13T17:44:08.144Z,101726.66
2024-04-13T17:46:36.939Z,101727.50
2024-04-13T17:49:06.642Z,101730.66
2024-04-13T17:51:35.275Z,101732.31
2024-04-13T17:54:04.803Z,101730.84
2024-04-13T17:56:35.668Z,101732.06
2024-04-13T17:59:04.378Z,101730.13
2024-04-13T18:01:33.609Z,101727.97
2024-04-13T18:04:02.791Z,101738.03
2024-04-13T18:06:31.100Z,101745.97
2024-04-13T18:08:59.886Z,101735.16
2024-04-13T18:11:28.608Z,101741.28
2024-04-13T18:13:57.032Z,101740.19
2024-04-13T18:16:27.891Z,101739.97
2024-04-13T18:18:56.585Z,101740.75
2024-04-13T18:21:25.715Z,101745.34
2024-04-13T18:23:54.136Z,101747.75
2024-04-13T18:26:22.925Z,101742.44
2024-04-13T18:28:51.438Z,101743.47
2024-04-13T18:31:19.799Z,101741.78
2024-04-13T18:33:48.314Z,101740.88
2024-04-13T18:36:16.766Z,101748.03
2024-04-13T18:38:51.586Z,101748.75
2024-04-13T18:41:22.768Z,101752.38
2024-04-13T18:43:52.280Z,101749.56
2024-04-13T18:46:22.040Z,101754.31
2024-04-13T18:48:52.976Z,101754.59
2024-04-13T18:51:21.507Z,101755.13
2024-04-13T18:53:49.856Z,101751.72
2024-04-13T18:56:18.138Z,101754.09
2024-04-13T18:58:46.345Z,101757.59
2024-04-13T19:01:14.846Z,101759.28
2024-04-13T19:03:43.331Z,101764.69
2024-04-13T19:06:12.315Z,101768.16
2024-04-13T19:08:40.737Z,101782.41
2024-04-13T19:11:09.275Z,101782.97
2024-04-13T19:13:37.702Z,101782.66
2024-04-13T19:16:10.183Z,101777.97
2024-04-13T19:18:40.741Z,101779.38
2024-04-13T19:21:10.347Z,101776.38
2024-04-13T19:23:44.359Z,101775.34
2024-04-13T19:26:12.662Z,101779.47
2024-04-13T19:28:42.829Z,101777.59
2024-04-13T19:31:11.312Z,101789.72
2024-04-13T19:33:39.731Z,101794.19
2024-04-13T19:36:08.447Z,101788.13
2024-04-13T19:38:37.099Z,101791.59
2024-04-13T19:41:05.685Z,101789.72
2024-04-13T19:43:34.512Z,101786.78
2024-04-13T19:46:02.983Z,101791.69
2024-04-13T19:48:31.507Z,101787.75
2024-04-13T19:50:59.971Z,101793.00
2024-04-13T19:53:28.310Z,101793.66
2024-04-13T19:55:57.123Z,101794.06
2024-04-13T19:58:25.350Z,101784.34
2024-04-13T20:00:53.573Z,101786.13
2024-04-13T20:03:25.108Z,101781.22
2024-04-13T20:05:58.565Z,101780.72
2024-04-13T20:08:26.827Z,101771.53
2024-04-13T20:11:05.414Z,101769.94
2024-04-13T20:13:34.636Z,101769.09
2024-04-13T20:16:21.040Z,101774.06
2024-04-13T20:18:50.493Z,101771.81
2024-04-13T20:21:19.154Z,101768.03
2024-04-13T20:23:47.246Z,101771.31
2024-04-13T20:26:15.377Z,101768.50
2024-04-13T20:28:45.275Z,101771.47
2024-04-13T20:31:14.414Z,101773.53
2024-04-13T20:33:47.096Z,101772.88
2024-04-13T20:36:15.386Z,101765.88
2024-04-13T20:38:43.426Z,101767.13
2024-04-13T20:41:11.538Z,101764.19
2024-04-13T20:43:40.983Z,101761.56
2024-04-13T20:46:09.239Z,101772.03
2024-04-13T20:48:37.360Z,101774.81
2024-04-13T20:51:05.982Z,101765.88
2024-04-13T20:53:34.234Z,101762.66
2024-04-13T20:56:02.971Z,101769.28
2024-04-13T20:58:31.373Z,101765.28
2024-04-13T21:01:03.136Z,101770.59
2024-04-13T21:03:31.558Z,101768.97
2024-04-13T21:05:59.884Z,101764.19
2024-04-13T21:08:28.241Z,101766.22
2024-04-13T21:10:56.736Z,101767.41
2024-04-13T21:13:27.254Z,101768.31
2024-04-13T21:15:55.901Z,101760.81
2024-04-13T21:18:24.162Z,101760.00
2024-04-13T21:20:52.466Z,101776.81
2024-04-13T21:23:20.830Z,101771.03
2024-04-13T21:25:50.112Z,101766.09
2024-04-13T21:28:19.663Z,101770.50
2024-04-13T21:30:50.094Z,101761.28
2024-04-13T21:33:18.620Z,101763.00
2024-04-13T21:35:55.560Z,101778.06
2024-04-13T21:38:28.940Z,101773.19
2024-04-13T21:40:58.666Z,101776.78
2024-04-13T21:43:27.421Z,101783.44
2024-04-13T21:45:58.306Z,101778.13
2024-04-13T21:48:26.689Z,101776.94
2024-04-13T21:50:54.985Z,101777.81
2024-04-13T21:53:23.619Z,101782.63
2024-04-13T21:55:51.936Z,101773.09
2024-04-13T21:58:20.604Z,101778.03
2024-04-13T22:00:49.133Z,101773.94
2024-04-13T22:03:18.075Z,101773.41
2024-04-13T22:05:46.778Z,101764.75
2024-04-13T22:08:15.403Z,101767.81
2024-04-13T22:10:43.711Z,101760.00
2024-04-13T22:13:12.141Z,101765.63
2024-04-13T22:15:40.304Z,101767.00
2024-04-13T22:18:08.731Z,101766.34
2024-04-13T22:20:38.402Z,101766.00
2024-04-13T22:23:06.598Z,101768.03
2024-04-13T22:25:35.120Z,101759.34
2024-04-13T22:28:04.703Z,101755.44
2024-04-13T22:30:37.408Z,101762.06
2024-04-13T22:33:07.033Z,101756.81
2024-04-13T22:35:35.965Z,101760.56
2024-04-13T22:38:04.549Z,101766.84
2024-04-13T22:40:33.531Z,101768.88
2024-04-13T22:43:03.469Z,101766.34
2024-04-13T22:45:32.143Z,101774.50
2024-04-13T22:48:00.649Z,101768.38
2024-04-13T22:50:29.257Z,101777.38
2024-04-13T22:52:57.689Z,101770.25
2024-04-13T22:55:26.343Z,101769.38
2024-04-13T22:57:54.656Z,101765.25
2024-04-13T23:00:23.338Z,101762.88
2024-04-13T23:02:51.426Z,101766.13
2024-04-13T23:05:19.625Z,101767.25
2024-04-13T23:07:47.939Z,101765.88
2024-04-13T23:10:16.233Z,101764.72
2024-04-13T23:12:44.412Z,101764.91
2024-04-13T23:15:12.827Z,101768.59
2024-04-13T23:17:40.917Z,101759.47
2024-04-13T23:20:09.394Z,101764.38
2024-04-13T23:22:37.669Z,101763.13
2024-04-13T23:25:06.242Z,101766.03
2024-04-13T23:27:36.323Z,101773.50
2024-04-13T23:30:08.439Z,101773.00
2024-04-13T23:32:37.037Z,101769.75
2024-04-13T23:35:05.675Z,101769.25
2024-04-13T23:37:33.826Z,101773.47
2024-04-13T23:40:01.966Z,101769.19
2024-04-13T23:42:30.347Z,101773.75
2024-04-13T23:44:58.776Z,101779.50
2024-04-13T23:47:27.256Z,101773.22
2024-04-13T23:49:56.302Z,101771.22
2024-04-13T23:52:24.657Z,101778.16
2024-04-13T23:54:53.233Z,101775.78
2024-04-13T23:57:21.709Z,101772.22
2024-04-13T23:59:50.058Z,101766.47
